createdAt,value
2017-10-23T00:01:05.748Z,11.80
2017-10-23T00:03:33.182Z,11.90
2017-10-23T00:06:00.632Z,13.05
2017-10-23T00:08:28.832Z,11.90
2017-10-23T00:10:56.270Z,12.05
2017-10-23T00:13:23.755Z,13.57
2017-10-23T00:15:51.228Z,12.27
2017-10-23T00:18:18.664Z,12.32
2017-10-23T00:20:46.131Z,12.48
2017-10-23T00:23:13.588Z,14.20
2017-10-23T00:25:41.038Z,13.25
2017-10-23T00:28:08.476Z,11.93
2017-10-23T00:30:35.931Z,12.57
2017-10-23T00:33:03.366Z,11.67
2017-10-23T00:35:30.867Z,12.80
2017-10-23T00:37:58.328Z,13.60
2017-10-23T00:40:25.768Z,14.40
2017-10-23T00:42:53.219Z,14.07
2017-10-23T00:45:20.700Z,13.33
2017-10-23T00:47:48.155Z,15.82
2017-10-23T00:50:15.606Z,15.45
2017-10-23T00:52:43.157Z,14.00
2017-10-23T00:55:10.599Z,12.88
2017-10-23T00:57:38.047Z,13.80
2017-10-23T01:00:05.491Z,13.70
2017-10-23T01:02:32.944Z,14.48
2017-10-23T01:05:01.158Z,13.32
2017-10-23T01:07:28.606Z,13.67
2017-10-23T01:09:56.074Z,13.38
2017-10-23T01:12:23.519Z,12.37
2017-10-23T01:14:51.070Z,12.95
2017-10-23T01:17:18.567Z,13.75
2017-10-23T01:19:46.007Z,13.50
2017-10-23T01:22:13.450Z,13.80
2017-10-23T01:24:40.923Z,14.93
2017-10-23T01:27:08.367Z,14.43
2017-10-23T01:29:35.810Z,13.25
2017-10-23T01:32:03.260Z,14.52
2017-10-23T01:34:30.743Z,13.20
2017-10-23T01:36:58.204Z,13.85
2017-10-23T01:39:25.644Z,13.48
2017-10-23T01:41:53.122Z,14.80
2017-10-23T01:44:20.682Z,13.95
2017-10-23T01:46:48.121Z,13.20
2017-10-23T01:49:15.568Z,13.60
2017-10-23T01:51:43.004Z,14.40
2017-10-23T01:54:10.434Z,13.45
2017-10-23T01:56:38.664Z,14.75
2017-10-23T01:59:06.106Z,13.23
2017-10-23T02:01:33.530Z,12.57
2017-10-23T02:04:01.770Z,14.00
2017-10-23T02:06:30.727Z,12.90
2017-10-23T02:08:58.215Z,12.77
2017-10-23T02:11:25.678Z,14.90
2017-10-23T02:13:53.218Z,13.53
2017-10-23T02:16:20.659Z,13.63
2017-10-23T02:18:48.094Z,13.20
2017-10-23T02:21:15.523Z,12.63
2017-10-23T02:23:43.761Z,14.40
2017-10-23T02:26:11.218Z,14.23
2017-10-23T02:28:38.663Z,15.23
2017-10-23T02:31:06.107Z,15.93
2017-10-23T02:33:33.591Z,16.42
2017-10-23T02:36:01.224Z,15.25
2017-10-23T02:38:28.718Z,17.20
2017-10-23T02:40:56.161Z,17.27
2017-10-23T02:43:23.615Z,18.45
2017-10-23T02:45:51.084Z,19.65
2017-10-23T02:48:18.529Z,18.02
2017-10-23T02:50:45.985Z,18.83
2017-10-23T02:53:13.445Z,16.93
2017-10-23T02:55:40.901Z,20.23
2017-10-23T02:58:08.335Z,19.42
2017-10-23T03:00:35.814Z,19.10
2017-10-23T03:03:03.273Z,19.70
2017-10-23T03:05:30.707Z,18.87
2017-10-23T03:07:58.152Z,24.52
2017-10-23T03:10:25.646Z,18.80
2017-10-23T03:12:53.082Z,19.83
2017-10-23T03:15:20.595Z,19.67
2017-10-23T03:17:48.815Z,20.60
2017-10-23T03:20:16.247Z,20.90
2017-10-23T03:22:43.699Z,23.83
2017-10-23T03:25:11.155Z,24.90
2017-10-23T03:27:38.635Z,21.08
2017-10-23T03:30:06.092Z,21.17
2017-10-23T03:32:33.530Z,20.85
2017-10-23T03:35:00.975Z,24.75
2017-10-23T03:37:28.432Z,20.33
2017-10-23T03:39:55.879Z,22.33
2017-10-23T03:42:23.310Z,21.37
2017-10-23T03:44:50.749Z,21.95
2017-10-23T03:47:18.191Z,22.40
2017-10-23T03:49:45.647Z,22.67
2017-10-23T03:52:13.090Z,20.77
2017-10-23T03:54:40.536Z,21.35
2017-10-23T03:57:07.992Z,22.67
2017-10-23T03:59:35.477Z,19.90
2017-10-23T04:02:02.906Z,18.95
2017-10-23T04:04:30.353Z,22.23
2017-10-23T04:06:57.822Z,22.80
2017-10-23T04:09:25.259Z,20.02
2017-10-23T04:11:52.735Z,19.97
2017-10-23T04:14:20.195Z,18.23
2017-10-23T04:16:47.642Z,18.98
2017-10-23T04:19:15.122Z,18.80
2017-10-23T04:21:42.574Z,18.45
2017-10-23T04:24:10.022Z,19.52
2017-10-23T04:26:37.482Z,17.00
2017-10-23T04:29:04.934Z,19.42
2017-10-23T04:31:32.377Z,16.95
2017-10-23T04:33:59.862Z,16.40
2017-10-23T04:36:27.306Z,17.58
2017-10-23T04:38:54.770Z,18.40
2017-10-23T04:41:22.238Z,16.48
2017-10-23T04:43:49.685Z,17.42
2017-10-23T04:46:17.140Z,17.60
2017-10-23T04:48:44.619Z,17.05
2017-10-23T04:51:12.167Z,18.73
2017-10-23T04:53:39.614Z,19.27
2017-10-23T04:56:07.062Z,19.90
2017-10-23T04:58:34.922Z,17.15
2017-10-23T05:01:02.394Z,17.45
2017-10-23T05:03:29.845Z,17.37
2017-10-23T05:05:57.318Z,16.30
2017-10-23T05:08:24.768Z,17.43
2017-10-23T05:10:52.220Z,16.15
2017-10-23T05:13:19.677Z,18.73
2017-10-23T05:15:47.123Z,19.67
2017-10-23T05:18:14.565Z,16.58
2017-10-23T05:20:42.048Z,18.00
2017-10-23T05:23:09.479Z,18.10
2017-10-23T05:25:36.903Z,20.67
2017-10-23T05:28:05.136Z,18.48
2017-10-23T05:30:32.591Z,17.45
2017-10-23T05:33:00.048Z,18.87
2017-10-23T05:35:27.609Z,17.10
2017-10-23T05:37:55.064Z,23.83
2017-10-23T05:40:22.527Z,17.80
2017-10-23T05:42:49.979Z,17.45
2017-10-23T05:45:17.438Z,18.27
2017-10-23T05:47:44.926Z,19.02
2017-10-23T05:50:13.142Z,19.63
2017-10-23T05:52:40.578Z,21.00
2017-10-23T05:55:08.174Z,20.45
2017-10-23T05:57:35.626Z,22.25
2017-10-23T06:00:03.101Z,22.67
2017-10-23T06:02:30.621Z,21.80
2017-10-23T06:04:58.051Z,20.98
2017-10-23T06:07:25.499Z,22.50
2017-10-23T06:09:53.710Z,22.37
2017-10-23T06:12:21.142Z,23.00
2017-10-23T06:14:48.602Z,23.75
2017-10-23T06:17:16.043Z,25.67
2017-10-23T06:19:44.283Z,23.60
2017-10-23T06:22:11.944Z,25.05
2017-10-23T06:24:39.383Z,21.70
2017-10-23T06:27:06.830Z,21.47
2017-10-23T06:29:34.254Z,20.27
2017-10-23T06:32:01.700Z,22.25
2017-10-23T06:34:29.927Z,22.65
2017-10-23T06:36:57.379Z,23.05
2017-10-23T06:39:24.812Z,25.30
2017-10-23T06:41:52.268Z,24.15
2017-10-23T06:44:19.769Z,24.50
2017-10-23T06:46:47.201Z,20.35
2017-10-23T06:49:15.380Z,20.75
2017-10-23T06:51:42.891Z,25.50
2017-10-23T06:54:10.342Z,21.02
2017-10-23T06:56:37.803Z,22.10
2017-10-23T06:59:05.463Z,21.02
2017-10-23T07:01:32.919Z,22.52
2017-10-23T07:04:00.380Z,23.20
2017-10-23T07:06:27.841Z,26.60
2017-10-23T07:08:55.293Z,21.55
2017-10-23T07:11:22.753Z,22.70
2017-10-23T07:13:50.396Z,25.80
2017-10-23T07:16:17.954Z,19.90
2017-10-23T07:18:45.399Z,22.87
2017-10-23T07:21:12.843Z,20.52
2017-10-23T07:23:40.304Z,22.05
2017-10-23T07:26:07.739Z,22.00
2017-10-23T07:28:35.185Z,23.75
2017-10-23T07:31:02.626Z,23.45
2017-10-23T07:33:30.972Z,24.83
2017-10-23T07:35:58.414Z,23.90
2017-10-23T07:38:25.953Z,25.10
2017-10-23T07:40:53.450Z,26.85
2017-10-23T07:43:20.970Z,24.77
2017-10-23T07:45:48.415Z,25.23
2017-10-23T07:48:15.873Z,24.08
2017-10-23T07:50:43.354Z,23.08
2017-10-23T07:53:10.819Z,22.48
2017-10-23T07:55:38.257Z,27.57
2017-10-23T07:58:05.707Z,26.35
2017-10-23T08:00:33.209Z,21.40
2017-10-23T08:03:00.711Z,20.67
2017-10-23T08:05:28.202Z,19.37
2017-10-23T08:07:55.664Z,20.42
2017-10-23T08:10:23.120Z,23.05
2017-10-23T08:12:50.606Z,18.65
2017-10-23T08:15:18.864Z,22.10
2017-10-23T08:17:46.308Z,18.65
2017-10-23T08:20:13.799Z,21.48
2017-10-23T08:22:42.073Z,18.80
2017-10-23T08:25:09.516Z,19.58
2017-10-23T08:27:36.970Z,22.27
2017-10-23T08:30:04.417Z,18.33
2017-10-23T08:32:31.846Z,20.88
2017-10-23T08:34:59.319Z,17.98
2017-10-23T08:37:26.769Z,19.42
2017-10-23T08:39:54.235Z,22.53
2017-10-23T08:42:21.671Z,19.12
2017-10-23T08:44:49.230Z,21.60
2017-10-23T08:47:16.781Z,20.50
2017-10-23T08:49:44.286Z,17.83
2017-10-23T08:52:11.726Z,19.60
2017-10-23T08:54:44.187Z,20.70
2017-10-23T08:57:11.643Z,18.40
2017-10-23T08:59:39.106Z,20.05
2017-10-23T09:02:06.543Z,20.42
2017-10-23T09:04:34.002Z,17.17
2017-10-23T09:07:01.450Z,16.87
2017-10-23T09:09:28.897Z,17.23
2017-10-23T09:11:56.348Z,18.62
2017-10-23T09:14:23.796Z,13.60
2017-10-23T09:16:52.042Z,17.00
2017-10-23T09:19:19.475Z,15.50
2017-10-23T09:21:46.926Z,15.30
2017-10-23T09:24:14.510Z,16.62
2017-10-23T09:26:41.963Z,15.25
2017-10-23T09:29:09.419Z,18.05
2017-10-23T09:31:36.868Z,14.55
2017-10-23T09:34:04.330Z,14.63
2017-10-23T09:36:33.295Z,15.90
2017-10-23T09:39:00.756Z,17.55
2017-10-23T09:41:28.218Z,16.83
2017-10-23T09:43:55.674Z,16.15
2017-10-23T09:46:23.210Z,13.83
2017-10-23T09:48:50.699Z,14.50
2017-10-23T09:51:18.329Z,11.10
2017-10-23T09:53:45.822Z,13.62
2017-10-23T09:56:13.280Z,16.70
2017-10-23T09:58:40.722Z,14.07
2017-10-23T10:01:08.156Z,14.05
2017-10-23T10:03:35.610Z,15.02
2017-10-23T10:06:03.203Z,14.27
2017-10-23T10:08:30.679Z,13.43
2017-10-23T10:10:58.231Z,15.18
2017-10-23T10:13:26.005Z,15.07
2017-10-23T10:15:53.743Z,17.75
2017-10-23T10:18:21.174Z,15.25
2017-10-23T10:20:48.631Z,14.87
2017-10-23T10:23:16.099Z,13.02
2017-10-23T10:25:43.545Z,13.62
2017-10-23T10:28:10.983Z,14.98
2017-10-23T10:30:38.427Z,12.53
2017-10-23T10:33:05.863Z,14.32
2017-10-23T10:35:34.227Z,13.77
2017-10-23T10:38:01.654Z,15.98
2017-10-23T10:40:29.110Z,16.35
2017-10-23T10:42:56.546Z,15.65
2017-10-23T10:45:23.987Z,19.62
2017-10-23T10:47:51.492Z,15.90
2017-10-23T10:50:18.926Z,13.25
2017-10-23T10:52:46.485Z,14.45
2017-10-23T10:55:15.285Z,16.55
2017-10-23T10:57:45.563Z,13.40
2017-10-23T11:00:13.076Z,13.70
2017-10-23T11:02:40.618Z,12.85
2017-10-23T11:05:08.072Z,14.50
2017-10-23T11:07:35.595Z,15.00
2017-10-23T11:10:03.046Z,14.35
2017-10-23T11:12:30.853Z,11.57
2017-10-23T11:14:58.290Z,12.55
2017-10-23T11:17:25.749Z,12.10
2017-10-23T11:19:53.190Z,13.20
2017-10-23T11:22:20.688Z,10.93
2017-10-23T11:24:48.157Z,9.90
2017-10-23T11:27:15.596Z,8.82
2017-10-23T11:29:43.135Z,7.77
2017-10-23T11:32:10.571Z,7.65
2017-10-23T11:34:38.861Z,9.48
2017-10-23T11:37:06.747Z,8.32
2017-10-23T11:39:34.631Z,8.77
2017-10-23T11:42:05.681Z,7.25
2017-10-23T11:44:34.217Z,6.03
2017-10-23T11:47:01.645Z,6.12
2017-10-23T11:49:29.863Z,7.30
2017-10-23T11:51:57.405Z,4.90
2017-10-23T11:54:24.851Z,5.45
2017-10-23T11:56:52.342Z,4.55
2017-10-23T11:59:20.900Z,6.30
2017-10-23T12:01:48.348Z,4.80
2017-10-23T12:04:15.830Z,4.25
2017-10-23T12:06:43.263Z,4.87
2017-10-23T12:09:10.720Z,3.58
2017-10-23T12:11:38.155Z,5.80
2017-10-23T12:14:05.600Z,5.95
2017-10-23T12:16:33.811Z,4.50
2017-10-23T12:19:01.250Z,5.60
2017-10-23T12:21:28.747Z,4.50
2017-10-23T12:23:56.195Z,3.30
2017-10-23T12:26:23.658Z,6.03
2017-10-23T12:28:51.197Z,4.28
2017-10-23T12:31:18.645Z,4.10
2017-10-23T12:33:46.127Z,4.60
2017-10-23T12:36:13.591Z,4.22
2017-10-23T12:38:41.047Z,3.42
2017-10-23T12:41:08.499Z,3.53
2017-10-23T12:43:35.972Z,4.55
2017-10-23T12:46:03.412Z,3.92
2017-10-23T12:48:31.176Z,4.22
2017-10-23T12:50:58.595Z,4.40
2017-10-23T12:53:26.086Z,4.45
2017-10-23T12:55:53.546Z,4.80
2017-10-23T12:58:20.998Z,4.85
2017-10-23T13:00:48.428Z,5.30
2017-10-23T13:03:15.867Z,3.10
2017-10-23T13:05:43.303Z,4.30
2017-10-23T13:08:11.508Z,4.40
2017-10-23T13:10:38.972Z,3.58
2017-10-23T13:13:06.391Z,3.83
2017-10-23T13:15:34.600Z,2.58
2017-10-23T13:18:02.049Z,4.40
2017-10-23T13:20:29.550Z,3.90
2017-10-23T13:22:57.009Z,7.00
2017-10-23T13:25:24.450Z,4.50
2017-10-23T13:27:51.908Z,4.70
2017-10-23T13:30:19.348Z,4.60
2017-10-23T13:32:46.845Z,4.40
2017-10-23T13:35:14.312Z,4.00
2017-10-23T13:37:41.831Z,4.95
2017-10-23T13:40:09.360Z,5.25
2017-10-23T13:42:36.799Z,5.20
2017-10-23T13:45:04.235Z,3.75
2017-10-23T13:47:32.448Z,5.70
2017-10-23T13:50:00.040Z,4.57
2017-10-23T13:52:27.496Z,5.35
2017-10-23T13:54:55.050Z,5.65
2017-10-23T13:57:22.490Z,7.37
2017-10-23T13:59:49.946Z,5.12
2017-10-23T14:02:17.395Z,7.20
2017-10-23T14:04:44.827Z,6.35
2017-10-23T14:07:12.338Z,6.20
2017-10-23T14:09:39.794Z,5.43
2017-10-23T14:12:07.226Z,5.30
2017-10-23T14:14:34.679Z,5.75
2017-10-23T14:17:02.165Z,5.63
2017-10-23T14:19:29.599Z,6.10
2017-10-23T14:21:57.078Z,6.72
2017-10-23T14:24:24.512Z,4.70
2017-10-23T14:26:51.983Z,4.55
2017-10-23T14:29:19.434Z,5.72
2017-10-23T14:31:46.874Z,11.20
2017-10-23T14:34:14.432Z,8.27
2017-10-23T14:36:41.902Z,6.78
2017-10-23T14:39:09.350Z,5.80
2017-10-23T14:41:36.798Z,8.27
2017-10-23T14:44:04.240Z,5.72
2017-10-23T14:46:31.693Z,5.68
2017-10-23T14:48:59.157Z,7.28
2017-10-23T14:51:26.593Z,6.68
2017-10-23T14:53:54.812Z,6.22
2017-10-23T14:56:22.316Z,7.50
2017-10-23T14:58:49.811Z,5.72
2017-10-23T15:01:17.242Z,5.82
2017-10-23T15:03:44.828Z,5.00
2017-10-23T15:06:12.274Z,5.00
2017-10-23T15:08:39.705Z,5.57
2017-10-23T15:11:08.016Z,7.00
2017-10-23T15:13:35.497Z,9.40
2017-10-23T15:16:02.925Z,9.10
2017-10-23T15:18:30.358Z,9.10
2017-10-23T15:20:57.852Z,15.38
2017-10-23T15:23:25.344Z,8.48
2017-10-23T15:25:53.574Z,8.18
2017-10-23T15:28:21.154Z,8.60
2017-10-23T15:30:48.612Z,9.05
2017-10-23T15:33:16.084Z,7.97
2017-10-23T15:35:43.547Z,11.47
2017-10-23T15:38:11.007Z,9.70
2017-10-23T15:40:38.431Z,9.38
2017-10-23T15:43:05.879Z,8.18
2017-10-23T15:45:33.344Z,7.80
2017-10-23T15:48:00.796Z,8.45
2017-10-23T15:50:28.226Z,6.15
2017-10-23T15:52:55.715Z,6.50
2017-10-23T15:55:23.175Z,8.30
2017-10-23T15:57:50.611Z,6.30
2017-10-23T16:00:18.050Z,6.70
2017-10-23T16:02:45.541Z,7.20
2017-10-23T16:05:12.999Z,6.80
2017-10-23T16:07:40.455Z,7.30
2017-10-23T16:10:09.140Z,7.60
2017-10-23T16:12:36.600Z,7.30
2017-10-23T16:15:04.057Z,7.40
2017-10-23T16:17:31.499Z,7.23
2017-10-23T16:19:58.998Z,8.93
2017-10-23T16:22:26.440Z,8.20
2017-10-23T16:24:53.990Z,7.70
2017-10-23T16:27:21.448Z,10.33
2017-10-23T16:29:48.907Z,9.50
2017-10-23T16:32:16.364Z,7.90
2017-10-23T16:34:43.799Z,7.45
2017-10-23T16:37:11.341Z,7.95
2017-10-23T16:39:38.830Z,9.73
2017-10-23T16:42:06.276Z,7.97
2017-10-23T16:44:33.710Z,7.60
2017-10-23T16:47:01.146Z,8.25
2017-10-23T16:49:28.600Z,9.80
2017-10-23T16:51:57.744Z,10.07
2017-10-23T16:54:25.275Z,10.93
2017-10-23T16:56:52.714Z,10.00
2017-10-23T16:59:20.172Z,11.53
2017-10-23T17:01:47.691Z,10.90
2017-10-23T17:04:15.319Z,9.40
2017-10-23T17:06:42.806Z,9.45
2017-10-23T17:09:11.031Z,9.80
2017-10-23T17:11:38.527Z,12.68
2017-10-23T17:14:05.999Z,10.00
2017-10-23T17:16:33.613Z,10.38
2017-10-23T17:19:01.048Z,11.52
2017-10-23T17:21:28.484Z,11.57
2017-10-23T17:23:57.479Z,10.50
2017-10-23T17:26:24.984Z,11.12
2017-10-23T17:28:52.439Z,14.15
2017-10-23T17:31:19.927Z,13.00
2017-10-23T17:33:47.383Z,12.15
2017-10-23T17:36:14.858Z,12.88
2017-10-23T17:38:43.175Z,13.75
2017-10-23T17:41:10.660Z,12.40
2017-10-23T17:43:39.007Z,13.40
2017-10-23T17:46:06.446Z,12.10
2017-10-23T17:48:33.876Z,11.65
2017-10-23T17:51:02.118Z,11.75
2017-10-23T17:53:29.559Z,12.60
2017-10-23T17:55:57.004Z,11.52
2017-10-23T17:58:24.503Z,12.50
2017-10-23T18:00:52.761Z,12.10
2017-10-23T18:03:20.197Z,13.38
2017-10-23T18:05:47.655Z,12.98
2017-10-23T18:08:15.159Z,15.25
2017-10-23T18:10:42.716Z,13.00
2017-10-23T18:13:10.246Z,14.07
2017-10-23T18:15:37.710Z,15.82
2017-10-23T18:18:05.152Z,12.20
2017-10-23T18:20:32.707Z,12.48
2017-10-23T18:23:00.135Z,13.93
2017-10-23T18:25:27.605Z,11.80
2017-10-23T18:27:55.057Z,13.38
2017-10-23T18:30:22.491Z,11.73
2017-10-23T18:32:50.713Z,11.63
2017-10-23T18:35:18.357Z,12.05
2017-10-23T18:37:45.838Z,12.02
2017-10-23T18:40:13.308Z,12.40
2017-10-23T18:42:40.770Z,11.80
2017-10-23T18:45:08.199Z,12.35
2017-10-23T18:47:35.755Z,11.85
2017-10-23T18:50:03.223Z,11.23
2017-10-23T18:52:30.763Z,11.73
2017-10-23T18:54:58.232Z,11.20
2017-10-23T18:57:25.698Z,11.80
2017-10-23T18:59:53.258Z,11.55
2017-10-23T19:02:20.831Z,12.10
2017-10-23T19:04:48.262Z,11.82
2017-10-23T19:07:15.717Z,14.20
2017-10-23T19:09:43.191Z,13.10
2017-10-23T19:12:10.639Z,12.83
2017-10-23T19:14:38.086Z,12.18
2017-10-23T19:17:05.530Z,13.10
2017-10-23T19:19:32.966Z,13.10
2017-10-23T19:22:00.450Z,13.55
2017-10-23T19:24:27.896Z,12.07
2017-10-23T19:26:55.454Z,12.35
2017-10-23T19:29:22.925Z,12.55
2017-10-23T19:31:50.363Z,12.48
2017-10-23T19:34:17.852Z,11.40
2017-10-23T19:36:45.297Z,14.40
2017-10-23T19:39:12.740Z,15.40
2017-10-23T19:41:40.215Z,11.30
2017-10-23T19:44:07.745Z,12.30
2017-10-23T19:46:35.167Z,12.00
2017-10-23T19:49:03.579Z,13.70
2017-10-23T19:51:31.071Z,15.68
2017-10-23T19:53:58.508Z,14.23
2017-10-23T19:56:25.979Z,13.70
2017-10-23T19:58:53.431Z,14.73
2017-10-23T20:01:20.892Z,14.07
2017-10-23T20:03:48.334Z,14.38
2017-10-23T20:06:15.793Z,14.25
2017-10-23T20:08:43.238Z,15.27
2017-10-23T20:11:10.707Z,14.90
2017-10-23T20:13:38.246Z,14.65
2017-10-23T20:16:05.738Z,14.95
2017-10-23T20:18:33.195Z,15.02
2017-10-23T20:21:00.715Z,14.57
2017-10-23T20:23:28.158Z,15.07
2017-10-23T20:25:55.595Z,15.27
2017-10-23T20:28:23.794Z,14.30
2017-10-23T20:30:51.238Z,17.15
2017-10-23T20:33:18.694Z,15.20
2017-10-23T20:35:46.191Z,16.17
2017-10-23T20:38:13.623Z,16.20
2017-10-23T20:40:41.087Z,16.05
2017-10-23T20:43:08.530Z,16.45
2017-10-23T20:45:36.017Z,15.88
2017-10-23T20:48:03.454Z,15.93
2017-10-23T20:50:30.898Z,15.10
2017-10-23T20:52:58.360Z,15.73
2017-10-23T20:55:25.810Z,15.40
2017-10-23T20:57:54.035Z,15.90
2017-10-23T21:00:21.487Z,17.25
2017-10-23T21:02:48.947Z,18.67
2017-10-23T21:05:16.397Z,18.23
2017-10-23T21:07:43.834Z,19.40
2017-10-23T21:10:11.296Z,17.35
2017-10-23T21:12:38.739Z,17.55
2017-10-23T21:15:06.231Z,18.23
2017-10-23T21:17:33.683Z,18.27
2017-10-23T21:20:01.139Z,18.83
2017-10-23T21:22:28.598Z,17.20
2017-10-23T21:24:56.045Z,21.87
2017-10-23T21:27:23.491Z,18.30
2017-10-23T21:29:50.969Z,17.42
2017-10-23T21:32:18.414Z,16.98
2017-10-23T21:34:45.863Z,16.75
2017-10-23T21:37:13.335Z,16.92
2017-10-23T21:39:40.766Z,16.80
2017-10-23T21:42:08.255Z,17.75
2017-10-23T21:44:35.887Z,16.70
2017-10-23T21:47:09.231Z,17.30
2017-10-23T21:49:36.670Z,16.85
2017-10-23T21:52:04.115Z,17.50
2017-10-23T21:54:31.559Z,17.25
2017-10-23T21:56:59.015Z,19.20
2017-10-23T21:59:26.458Z,18.25
2017-10-23T22:01:54.020Z,19.23
2017-10-23T22:04:21.434Z,18.80
2017-10-23T22:06:49.632Z,18.33
2017-10-23T22:09:17.130Z,19.40
2017-10-23T22:11:44.587Z,19.80
2017-10-23T22:14:12.150Z,19.87
2017-10-23T22:16:39.597Z,19.47
2017-10-23T22:19:07.034Z,19.48
2017-10-23T22:21:34.470Z,18.27
2017-10-23T22:24:01.971Z,18.80
2017-10-23T22:26:29.422Z,18.10
2017-10-23T22:28:56.885Z,19.58
2017-10-23T22:31:24.354Z,19.42
2017-10-23T22:33:51.890Z,18.50
2017-10-23T22:36:19.366Z,18.60
2017-10-23T22:38:46.815Z,19.10
2017-10-23T22:41:14.254Z,20.30
2017-10-23T22:43:41.700Z,20.08
2017-10-23T22:46:09.179Z,19.67
2017-10-23T22:48:36.641Z,19.73
2017-10-23T22:51:04.086Z,19.70
2017-10-23T22:53:31.541Z,23.35
2017-10-23T22:55:58.988Z,20.67
2017-10-23T22:58:26.415Z,20.07
2017-10-23T23:00:53.866Z,20.73
2017-10-23T23:03:22.067Z,20.55
2017-10-23T23:05:49.518Z,20.25
2017-10-23T23:08:16.955Z,20.20
2017-10-23T23:10:44.411Z,20.50
2017-10-23T23:13:11.841Z,20.92
2017-10-23T23:15:39.295Z,24.08
2017-10-23T23:18:06.738Z,19.60
2017-10-23T23:20:34.183Z,19.48
2017-10-23T23:23:01.624Z,19.83
2017-10-23T23:25:29.074Z,19.50
2017-10-23T23:27:56.538Z,20.43
2017-10-23T23:30:24.016Z,20.73
2017-10-23T23:32:51.454Z,21.17
2017-10-23T23:35:18.915Z,19.80
2017-10-23T23:37:46.362Z,20.88
2017-10-23T23:40:13.814Z,22.20
2017-10-23T23:42:41.291Z,19.43
2017-10-23T23:45:08.746Z,20.75
2017-10-23T23:47:36.186Z,20.27
2017-10-23T23:50:03.651Z,20.40
2017-10-23T23:52:31.090Z,20.35
2017-10-23T23:54:58.581Z,20.05
2017-10-23T23:57:26.019Z,19.33
2017-10-23T23:59:53.474Z,19.48
